Aviation Digital Data Service (ADDS)

Output produced by METARs form (2117 UTC 20 August 2019)
found at http://www.aviationweather.gov/metar/data/
 
Forecast for: PHTO (HILO , HI, US)
Text: PHTO 201741Z 2018/2118 26005KT P6SM VCSH FEW015 SCT025 BKN040
Forecast period: 1800 to 2100 UTC 20 August 2019
Forecast type: FROM: standard forecast or significant change
Winds: from the W (260 degrees) at 6 MPH (5 knots; 2.6 m/s)
Visibility: 6 or more miles 10+ km)
Ceiling: 4000 feet AGL
Clouds: few clouds at 1500 feet AGL
scattered clouds at 2500 feet AGL
broken clouds at 4000 feet AGL
Weather: VCSH  (showers in vicinity)
Text: FM202100 07008KT P6SM VCSH SCT025 BKN040
Forecast period: 2100 UTC 20 August 2019 to 0600 UTC 21 August 2019
Forecast type: FROM: standard forecast or significant change
Winds: from the ENE (70 degrees) at 9 MPH (8 knots; 4.1 m/s)
Visibility: 6 or more miles 10+ km)
Ceiling: 4000 feet AGL
Clouds: scattered clouds at 2500 feet AGL
broken clouds at 4000 feet AGL
Weather: VCSH  (showers in vicinity)
Text: FM210600 25005KT P6SM VCSH SCT025 BKN040
Forecast period: 0600 to 1800 UTC 21 August 2019
Forecast type: FROM: standard forecast or significant change
Winds: from the WSW (250 degrees) at 6 MPH (5 knots; 2.6 m/s)
Visibility: 6 or more miles 10+ km)
Ceiling: 4000 feet AGL
Clouds: scattered clouds at 2500 feet AGL
broken clouds at 4000 feet AGL
Weather: VCSH  (showers in vicinity)